createdAt,value
2019-03-10T00:02:24.291Z,81.24
2019-03-10T00:04:55.174Z,81.12
2019-03-10T00:07:26.115Z,80.82
2019-03-10T00:09:57.148Z,80.99
2019-03-10T00:12:28.250Z,80.66
2019-03-10T00:14:59.366Z,80.15
2019-03-10T00:17:30.309Z,80.76
2019-03-10T00:20:01.272Z,79.81
2019-03-10T00:22:32.303Z,80.08
2019-03-10T00:25:03.478Z,79.47
2019-03-10T00:27:34.508Z,79.04
2019-03-10T00:30:14.190Z,79.27
2019-03-10T00:32:45.171Z,78.99
2019-03-10T00:35:16.225Z,79.15
2019-03-10T00:37:47.222Z,78.66
2019-03-10T00:40:40.959Z,78.58
2019-03-10T00:43:48.363Z,78.39
2019-03-10T00:46:55.583Z,78.78
2019-03-10T00:49:45.992Z,77.97
2019-03-10T00:52:20.670Z,77.60
2019-03-10T00:54:51.816Z,77.48
2019-03-10T00:57:22.876Z,77.23
2019-03-10T00:59:53.960Z,77.72
2019-03-10T01:02:24.856Z,77.32
2019-03-10T01:04:55.847Z,77.19
2019-03-10T01:07:26.981Z,76.72
2019-03-10T01:09:58.024Z,76.05
2019-03-10T01:12:29.040Z,75.97
2019-03-10T01:14:59.996Z,75.88
2019-03-10T01:17:32.425Z,76.34
2019-03-10T01:20:03.566Z,76.44
2019-03-10T01:22:35.320Z,76.46
2019-03-10T01:25:09.164Z,76.50
2019-03-10T01:27:40.204Z,76.02
2019-03-10T01:30:16.880Z,75.46
2019-03-10T01:33:10.406Z,75.91
2019-03-10T01:35:42.674Z,76.07
2019-03-10T01:38:13.884Z,75.97
2019-03-10T01:40:44.928Z,75.49
2019-03-10T01:43:16.040Z,75.58
2019-03-10T01:45:46.978Z,75.81
2019-03-10T01:48:18.084Z,75.76
2019-03-10T01:50:49.029Z,75.80
2019-03-10T01:53:25.500Z,76.13
2019-03-10T01:55:52.629Z,76.48
2019-03-10T01:58:23.614Z,76.76
2019-03-10T02:00:54.725Z,76.95
2019-03-10T02:03:25.668Z,76.58
2019-03-10T02:05:56.674Z,76.98
2019-03-10T02:08:27.690Z,76.55
2019-03-10T02:10:58.729Z,76.79
2019-03-10T02:13:29.730Z,76.04
2019-03-10T02:16:00.648Z,75.76
2019-03-10T02:18:31.648Z,76.26
2019-03-10T02:21:02.612Z,76.19
2019-03-10T02:23:33.606Z,75.74
2019-03-10T02:26:04.704Z,75.48
2019-03-10T02:28:35.838Z,75.71
2019-03-10T02:31:06.756Z,75.82
2019-03-10T02:33:37.798Z,76.36
2019-03-10T02:36:08.798Z,76.33
2019-03-10T02:38:39.821Z,76.88
2019-03-10T02:41:10.739Z,76.53
2019-03-10T02:43:41.794Z,76.48
2019-03-10T02:46:12.806Z,76.68
2019-03-10T02:48:43.695Z,76.60
2019-03-10T02:51:14.832Z,76.78
2019-03-10T02:53:45.779Z,77.35
2019-03-10T02:56:16.879Z,77.67
2019-03-10T02:58:47.770Z,78.07
2019-03-10T03:01:18.717Z,77.76
2019-03-10T03:03:49.759Z,78.13
2019-03-10T03:06:20.797Z,78.11
2019-03-10T03:08:51.845Z,78.15
2019-03-10T03:11:22.819Z,78.66
2019-03-10T03:13:53.845Z,78.86
2019-03-10T03:16:24.785Z,79.03
2019-03-10T03:18:55.742Z,79.44
2019-03-10T03:21:26.616Z,79.99
2019-03-10T03:23:57.561Z,80.41
2019-03-10T03:26:28.433Z,80.20
2019-03-10T03:28:59.412Z,80.08
2019-03-10T03:31:30.415Z,79.89
2019-03-10T03:34:01.435Z,79.98
2019-03-10T03:36:34.386Z,80.14
2019-03-10T03:39:17.691Z,80.02
2019-03-10T03:41:48.954Z,80.56
2019-03-10T03:44:20.111Z,80.52
2019-03-10T03:46:51.093Z,80.74
2019-03-10T03:49:22.264Z,80.78
2019-03-10T03:51:53.206Z,80.95
2019-03-10T03:54:24.123Z,81.05
2019-03-10T03:56:55.062Z,81.44
2019-03-10T03:59:26.047Z,81.52
2019-03-10T04:02:04.582Z,81.68
2019-03-10T04:04:35.793Z,81.77
2019-03-10T04:07:06.911Z,81.55
2019-03-10T04:09:37.864Z,81.77
2019-03-10T04:12:08.821Z,81.71
2019-03-10T04:14:39.716Z,81.61
2019-03-10T04:17:10.670Z,81.89
2019-03-10T04:19:41.938Z,82.54
2019-03-10T04:22:12.965Z,82.94
2019-03-10T04:24:43.952Z,83.31
2019-03-10T04:27:14.821Z,83.39
2019-03-10T04:29:45.761Z,83.37
2019-03-10T04:32:16.590Z,83.36
2019-03-10T04:34:47.537Z,83.47
2019-03-10T04:37:18.434Z,83.51
2019-03-10T04:39:49.444Z,83.60
2019-03-10T04:42:20.398Z,83.58
2019-03-10T04:44:51.804Z,83.85
2019-03-10T04:47:22.870Z,84.02
2019-03-10T04:49:53.812Z,84.48
2019-03-10T04:52:24.745Z,84.28
2019-03-10T04:55:03.449Z,84.21
2019-03-10T04:57:34.296Z,83.93
2019-03-10T05:00:07.682Z,83.50
2019-03-10T05:02:38.774Z,83.53
2019-03-10T05:05:09.826Z,83.46
2019-03-10T05:07:40.852Z,83.67
2019-03-10T05:10:11.898Z,83.52
2019-03-10T05:12:43.032Z,83.49
2019-03-10T05:15:14.004Z,83.40
2019-03-10T05:17:44.946Z,83.68
2019-03-10T05:20:15.844Z,84.58
2019-03-10T05:22:46.737Z,86.05
2019-03-10T05:25:23.040Z,87.26
2019-03-10T05:27:54.072Z,88.17
2019-03-10T05:30:25.007Z,90.51
2019-03-10T05:32:55.949Z,90.91
2019-03-10T05:35:27.000Z,92.19
2019-03-10T05:37:57.984Z,93.94
2019-03-10T05:40:28.993Z,94.88
2019-03-10T05:43:00.084Z,97.08
2019-03-10T05:45:31.193Z,98.37
2019-03-10T05:48:02.066Z,100.00
2019-03-10T05:50:33.133Z,100.00
2019-03-10T05:53:04.131Z,100.00
2019-03-10T05:55:35.609Z,100.00
2019-03-10T05:58:06.779Z,100.00
2019-03-10T06:00:42.591Z,100.00
2019-03-10T06:03:10.616Z,100.00
2019-03-10T06:05:41.576Z,100.00
2019-03-10T06:08:12.606Z,100.00
2019-03-10T06:10:43.735Z,100.00
2019-03-10T06:13:14.701Z,100.00
2019-03-10T06:15:45.812Z,100.00
2019-03-10T06:18:16.873Z,100.00
2019-03-10T06:20:47.912Z,100.00
2019-03-10T06:23:19.045Z,100.00
2019-03-10T06:25:50.023Z,100.00
2019-03-10T06:28:21.020Z,100.00
2019-03-10T06:30:51.971Z,100.00
2019-03-10T06:33:23.106Z,100.00
2019-03-10T06:35:54.412Z,100.00
2019-03-10T06:38:25.476Z,100.00
2019-03-10T06:40:56.579Z,100.00
2019-03-10T06:43:31.067Z,100.00
2019-03-10T06:46:02.179Z,100.00
2019-03-10T06:48:33.492Z,100.00
2019-03-10T06:51:04.791Z,100.00
2019-03-10T06:53:35.693Z,100.00
2019-03-10T06:56:06.997Z,100.00
2019-03-10T06:58:38.063Z,100.00
2019-03-10T07:01:08.164Z,100.00
2019-03-10T07:03:39.342Z,100.00
2019-03-10T07:06:10.271Z,100.00
2019-03-10T07:08:41.777Z,100.00
2019-03-10T07:11:12.656Z,100.00
2019-03-10T07:13:43.862Z,100.00
2019-03-10T07:16:14.901Z,100.00
2019-03-10T07:18:46.354Z,100.00
2019-03-10T07:21:17.395Z,100.00
2019-03-10T07:23:48.645Z,100.00
2019-03-10T07:26:19.533Z,100.00
2019-03-10T07:28:55.108Z,100.00
2019-03-10T07:31:39.889Z,100.00
2019-03-10T07:34:15.620Z,100.00
2019-03-10T07:36:54.267Z,100.00
2019-03-10T07:39:31.707Z,100.00
2019-03-10T07:42:07.303Z,100.00
2019-03-10T07:44:51.351Z,100.00
2019-03-10T07:47:39.004Z,100.00
2019-03-10T07:50:16.793Z,100.00
2019-03-10T07:52:52.835Z,100.00
2019-03-10T07:55:25.594Z,100.00
2019-03-10T07:58:10.597Z,100.00
2019-03-10T08:00:43.381Z,100.00
2019-03-10T08:03:16.334Z,100.00
2019-03-10T08:05:56.747Z,100.00
2019-03-10T08:08:29.596Z,100.00
2019-03-10T08:11:12.349Z,100.00
2019-03-10T08:13:51.044Z,100.00
2019-03-10T08:16:32.325Z,100.00
2019-03-10T08:19:14.237Z,100.00
2019-03-10T08:22:05.034Z,100.00
2019-03-10T08:24:40.789Z,100.00
2019-03-10T08:27:13.501Z,100.00
2019-03-10T08:29:46.414Z,100.00
2019-03-10T08:32:37.339Z,100.00
2019-03-10T08:35:19.287Z,100.00
2019-03-10T08:38:00.909Z,100.00
2019-03-10T08:40:42.738Z,100.00
2019-03-10T08:43:18.338Z,100.00
2019-03-10T08:46:00.637Z,100.00
2019-03-10T08:48:35.005Z,100.00
2019-03-10T08:51:10.694Z,100.00
2019-03-10T08:53:52.042Z,100.00
2019-03-10T08:56:27.635Z,100.00
2019-03-10T08:59:16.424Z,100.00
2019-03-10T09:02:08.086Z,100.00
2019-03-10T09:04:43.680Z,100.00
2019-03-10T09:07:16.658Z,100.00
2019-03-10T09:10:05.413Z,100.00
2019-03-10T09:12:50.174Z,100.00
2019-03-10T09:15:25.411Z,100.00
2019-03-10T09:18:07.040Z,100.00
2019-03-10T09:20:54.707Z,100.00
2019-03-10T09:23:36.544Z,100.00
2019-03-10T09:26:17.536Z,100.00
2019-03-10T09:28:50.464Z,100.00
2019-03-10T09:31:31.939Z,100.00
2019-03-10T09:34:04.759Z,100.00
2019-03-10T09:36:37.311Z,100.00
2019-03-10T09:39:09.513Z,100.00
2019-03-10T09:41:51.110Z,100.00
2019-03-10T09:44:25.475Z,100.00
2019-03-10T09:47:00.760Z,100.00
2019-03-10T09:49:52.784Z,100.00
2019-03-10T09:52:34.741Z,100.00
2019-03-10T09:55:23.941Z,100.00
2019-03-10T09:57:58.161Z,100.00
2019-03-10T10:00:43.478Z,100.00
2019-03-10T10:03:32.704Z,100.00
2019-03-10T10:06:06.742Z,100.00
2019-03-10T10:08:39.552Z,100.00
2019-03-10T10:11:12.300Z,100.00
2019-03-10T10:13:54.083Z,100.00
2019-03-10T10:16:29.560Z,100.00
2019-03-10T10:19:17.344Z,100.00
2019-03-10T10:21:51.764Z,100.00
2019-03-10T10:24:25.466Z,100.00
2019-03-10T10:27:05.558Z,100.00
2019-03-10T10:29:43.321Z,100.00
2019-03-10T10:32:17.349Z,100.00
2019-03-10T10:34:59.072Z,99.82
2019-03-10T10:37:45.504Z,100.00
2019-03-10T10:40:25.974Z,99.17
2019-03-10T10:42:58.716Z,97.76
2019-03-10T10:45:34.318Z,97.78
2019-03-10T10:48:08.646Z,97.70
2019-03-10T10:50:41.353Z,96.51
2019-03-10T10:53:13.960Z,97.19
2019-03-10T10:55:47.295Z,97.23
2019-03-10T10:58:25.908Z,97.58
2019-03-10T11:01:03.429Z,96.90
2019-03-10T11:03:45.585Z,96.18
2019-03-10T11:06:19.680Z,96.18
2019-03-10T11:09:02.842Z,94.64
2019-03-10T11:11:34.527Z,93.91
2019-03-10T11:14:17.006Z,93.73
2019-03-10T11:17:06.359Z,92.78
2019-03-10T11:19:41.821Z,92.89
2019-03-10T11:22:20.429Z,93.55
2019-03-10T11:24:53.583Z,94.69
2019-03-10T11:27:44.499Z,91.68
2019-03-10T11:30:17.755Z,91.83
2019-03-10T11:32:50.361Z,88.36
2019-03-10T11:35:23.188Z,91.32
2019-03-10T11:37:58.212Z,94.64
2019-03-10T11:40:31.043Z,94.23
2019-03-10T11:43:03.588Z,92.27
2019-03-10T11:45:54.884Z,90.26
2019-03-10T11:48:42.905Z,91.37
2019-03-10T11:51:15.917Z,90.85
2019-03-10T11:53:50.323Z,89.52
2019-03-10T11:56:23.151Z,83.94
2019-03-10T11:59:14.160Z,84.08
2019-03-10T12:01:46.771Z,81.54
2019-03-10T12:04:19.346Z,84.80
2019-03-10T12:07:01.397Z,79.92
2019-03-10T12:09:32.396Z,76.01
2019-03-10T12:12:03.901Z,75.39
2019-03-10T12:14:34.837Z,75.42
2019-03-10T12:17:05.028Z,74.69
2019-03-10T12:19:36.387Z,77.08
2019-03-10T12:22:07.606Z,78.27
2019-03-10T12:24:38.771Z,75.45
2019-03-10T12:27:09.671Z,74.00
2019-03-10T12:29:40.897Z,74.59
2019-03-10T12:32:11.954Z,73.30
2019-03-10T12:34:43.159Z,74.90
2019-03-10T12:37:14.177Z,75.84
2019-03-10T12:39:46.022Z,73.84
2019-03-10T12:42:16.991Z,71.52
2019-03-10T12:44:48.107Z,71.47
2019-03-10T12:47:19.101Z,74.22
2019-03-10T12:49:49.250Z,73.17
2019-03-10T12:52:21.010Z,71.78
2019-03-10T12:54:51.979Z,71.88
2019-03-10T12:57:23.092Z,73.40
2019-03-10T12:59:54.085Z,73.37
2019-03-10T13:02:25.231Z,67.47
2019-03-10T13:04:56.307Z,63.05
2019-03-10T13:07:27.431Z,63.11
2019-03-10T13:09:58.329Z,62.36
2019-03-10T13:12:29.627Z,62.29
2019-03-10T13:15:00.656Z,67.27
2019-03-10T13:17:31.902Z,66.56
2019-03-10T13:20:02.810Z,68.14
2019-03-10T13:22:32.872Z,69.52
2019-03-10T13:25:05.195Z,72.65
2019-03-10T13:27:36.181Z,68.99
2019-03-10T13:30:10.653Z,64.35
2019-03-10T13:32:44.166Z,61.65
2019-03-10T13:35:14.509Z,61.65
2019-03-10T13:37:45.579Z,59.66
2019-03-10T13:40:16.839Z,58.81
2019-03-10T13:42:47.863Z,61.44
2019-03-10T13:45:19.649Z,63.75
2019-03-10T13:47:50.700Z,64.69
2019-03-10T13:50:21.974Z,66.01
2019-03-10T13:52:53.011Z,67.67
2019-03-10T13:55:24.347Z,72.40
2019-03-10T13:57:55.404Z,75.30
2019-03-10T14:00:26.486Z,81.68
2019-03-10T14:02:57.668Z,86.62
2019-03-10T14:05:28.627Z,89.58
2019-03-10T14:07:59.863Z,94.56
2019-03-10T14:10:30.834Z,95.39
2019-03-10T14:13:02.147Z,95.79
2019-03-10T14:15:33.282Z,91.32
2019-03-10T14:18:05.909Z,90.35
2019-03-10T14:20:36.788Z,80.89
2019-03-10T14:23:07.987Z,79.25
2019-03-10T14:25:38.979Z,73.22
2019-03-10T14:28:10.275Z,71.16
2019-03-10T14:30:41.451Z,71.37
2019-03-10T14:33:11.580Z,68.49
2019-03-10T14:35:42.741Z,68.75
2019-03-10T14:38:13.767Z,66.90
2019-03-10T14:40:45.086Z,66.37
2019-03-10T14:43:16.127Z,64.25
2019-03-10T14:45:47.266Z,64.04
2019-03-10T14:48:18.449Z,62.67
2019-03-10T14:50:49.681Z,60.74
2019-03-10T14:53:20.752Z,60.90
2019-03-10T14:56:43.879Z,59.59
2019-03-10T14:59:09.561Z,57.41
2019-03-10T15:01:40.978Z,58.30
2019-03-10T15:04:11.975Z,57.31
2019-03-10T15:06:43.371Z,56.89
2019-03-10T15:09:14.289Z,55.81
2019-03-10T15:11:45.498Z,53.02
2019-03-10T15:14:16.440Z,52.09
2019-03-10T15:16:46.606Z,51.43
2019-03-10T15:19:17.836Z,51.64
2019-03-10T15:21:48.874Z,51.26
2019-03-10T15:24:20.344Z,52.02
2019-03-10T15:26:51.265Z,51.24
2019-03-10T15:29:22.428Z,52.13
2019-03-10T15:31:53.489Z,52.11
2019-03-10T15:34:24.826Z,52.25
2019-03-10T15:36:56.295Z,52.17
2019-03-10T15:39:27.735Z,52.63
2019-03-10T15:41:58.638Z,54.37
2019-03-10T15:44:29.880Z,55.10
2019-03-10T15:47:00.818Z,55.67
2019-03-10T15:49:30.844Z,55.71
2019-03-10T15:52:02.338Z,54.52
2019-03-10T15:54:33.328Z,54.31
2019-03-10T15:57:04.622Z,53.77
2019-03-10T15:59:35.799Z,54.38
2019-03-10T16:02:07.175Z,54.39
2019-03-10T16:04:38.306Z,54.03
2019-03-10T16:07:09.470Z,54.56
2019-03-10T16:09:40.571Z,54.61
2019-03-10T16:12:11.725Z,54.98
2019-03-10T16:14:42.705Z,54.61
2019-03-10T16:17:14.051Z,54.35
2019-03-10T16:19:45.113Z,54.97
2019-03-10T16:22:16.303Z,54.74
2019-03-10T16:24:47.284Z,54.60
2019-03-10T16:27:17.630Z,54.27
2019-03-10T16:29:48.831Z,56.83
2019-03-10T16:32:19.916Z,57.62
2019-03-10T16:34:51.467Z,57.94
2019-03-10T16:37:22.347Z,57.19
2019-03-10T16:39:53.516Z,54.69
2019-03-10T16:42:24.490Z,52.84
2019-03-10T16:44:55.782Z,52.64
2019-03-10T16:47:26.752Z,52.26
2019-03-10T16:49:57.970Z,51.05
2019-03-10T16:52:29.189Z,51.46
2019-03-10T16:55:00.520Z,51.83
2019-03-10T16:57:31.727Z,48.69
2019-03-10T17:00:02.155Z,48.24
2019-03-10T17:02:34.578Z,47.40
2019-03-10T17:05:08.682Z,47.76
2019-03-10T17:07:39.707Z,46.51
2019-03-10T17:10:13.867Z,47.38
2019-03-10T17:12:44.953Z,47.38
2019-03-10T17:15:18.496Z,47.36
2019-03-10T17:17:49.818Z,47.67
2019-03-10T17:20:20.911Z,47.00
2019-03-10T17:22:51.863Z,46.65
2019-03-10T17:25:22.907Z,47.22
2019-03-10T17:27:53.936Z,46.55
2019-03-10T17:30:47.080Z,46.99
2019-03-10T17:41:05.037Z,48.01
2019-03-10T17:43:36.034Z,48.13
2019-03-10T17:46:07.967Z,48.51
2019-03-10T17:48:39.273Z,48.54
2019-03-10T17:51:10.207Z,48.57
2019-03-10T17:53:42.053Z,48.40
2019-03-10T17:56:13.185Z,48.72
2019-03-10T17:58:44.714Z,47.89
2019-03-10T18:01:15.655Z,48.17
2019-03-10T18:03:46.680Z,47.15
2019-03-10T18:06:17.733Z,47.39
2019-03-10T18:08:49.225Z,46.01
2019-03-10T18:11:22.311Z,46.07
2019-03-10T18:13:53.129Z,45.29
2019-03-10T18:16:24.045Z,45.27
2019-03-10T18:18:55.311Z,45.08
2019-03-10T18:21:26.375Z,45.54
2019-03-10T18:23:57.402Z,45.43
2019-03-10T18:26:28.792Z,45.51
2019-03-10T18:28:59.762Z,45.76
2019-03-10T18:31:30.881Z,46.23
2019-03-10T18:34:01.804Z,46.71
2019-03-10T18:37:07.093Z,47.32
2019-03-10T18:39:46.892Z,47.23
2019-03-10T18:42:19.416Z,48.35
2019-03-10T18:44:50.357Z,48.65
2019-03-10T18:47:24.244Z,48.55
2019-03-10T18:49:55.653Z,49.18
2019-03-10T18:52:26.739Z,49.54
2019-03-10T18:55:00.421Z,48.78
2019-03-10T18:57:31.441Z,48.99
2019-03-10T19:00:02.418Z,49.15
2019-03-10T19:02:33.477Z,49.18
2019-03-10T19:05:05.821Z,48.89
2019-03-10T19:07:36.935Z,49.53
2019-03-10T19:10:10.474Z,49.62
2019-03-10T19:12:41.608Z,49.60
2019-03-10T19:15:20.780Z,50.15
2019-03-10T19:17:52.004Z,54.25
2019-03-10T19:20:23.058Z,59.16
2019-03-10T19:22:54.156Z,62.27
2019-03-10T19:25:25.464Z,65.67
2019-03-10T19:27:56.524Z,65.99
2019-03-10T19:30:27.503Z,67.24
2019-03-10T19:32:58.548Z,68.30
2019-03-10T19:35:29.673Z,67.03
2019-03-10T19:38:01.122Z,64.73
2019-03-10T19:40:32.306Z,65.10
2019-03-10T19:43:03.210Z,63.20
2019-03-10T19:45:34.190Z,63.47
2019-03-10T19:48:05.365Z,63.40
2019-03-10T19:50:37.116Z,63.41
2019-03-10T19:53:08.113Z,63.04
2019-03-10T19:55:39.295Z,62.15
2019-03-10T19:58:11.076Z,61.49
2019-03-10T20:00:42.036Z,59.88
2019-03-10T20:03:13.082Z,59.24
2019-03-10T20:05:44.271Z,59.54
2019-03-10T20:08:15.358Z,60.65
2019-03-10T20:10:46.381Z,60.58
2019-03-10T20:13:17.322Z,60.04
2019-03-10T20:15:48.207Z,60.59
2019-03-10T20:18:41.411Z,61.49
2019-03-10T20:21:23.023Z,60.28
2019-03-10T20:23:54.025Z,60.62
2019-03-10T20:26:25.035Z,60.36
2019-03-10T20:28:56.157Z,61.41
2019-03-10T20:31:27.155Z,63.31
2019-03-10T20:33:58.673Z,70.57
2019-03-10T20:36:29.678Z,77.33
2019-03-10T20:39:26.423Z,79.72
2019-03-10T20:42:05.020Z,82.36
2019-03-10T20:44:31.055Z,85.73
2019-03-10T20:47:02.118Z,86.70
2019-03-10T20:49:33.158Z,85.75
2019-03-10T20:52:04.133Z,84.52
2019-03-10T20:54:35.077Z,81.63
2019-03-10T20:57:06.275Z,79.87
2019-03-10T20:59:37.144Z,78.17
2019-03-10T21:02:08.217Z,77.67
2019-03-10T21:04:39.169Z,77.14
2019-03-10T21:07:10.476Z,76.07
2019-03-10T21:09:41.631Z,76.23
2019-03-10T21:12:12.823Z,74.93
2019-03-10T21:14:43.793Z,75.00
2019-03-10T21:17:14.733Z,74.68
2019-03-10T21:19:45.661Z,75.04
2019-03-10T21:22:16.758Z,74.69
2019-03-10T21:24:48.515Z,74.54
2019-03-10T21:27:19.621Z,74.51
2019-03-10T21:29:50.529Z,73.64
2019-03-10T21:32:21.654Z,73.67
2019-03-10T21:34:53.283Z,74.33
2019-03-10T21:37:24.225Z,74.76
2019-03-10T21:39:55.125Z,74.35
2019-03-10T21:42:26.350Z,75.28
2019-03-10T21:44:58.208Z,74.87
2019-03-10T21:47:30.111Z,75.58
2019-03-10T21:50:01.442Z,76.18
2019-03-10T21:52:32.635Z,76.49
2019-03-10T21:55:08.317Z,76.59
2019-03-10T21:57:39.527Z,76.98
2019-03-10T22:00:18.412Z,76.36
2019-03-10T22:02:49.508Z,76.58
2019-03-10T22:05:20.487Z,76.71
2019-03-10T22:07:51.455Z,77.08
2019-03-10T22:10:27.556Z,77.43
2019-03-10T22:12:55.255Z,77.89
2019-03-10T22:15:26.632Z,78.46
2019-03-10T22:17:57.827Z,79.07
2019-03-10T22:20:28.963Z,79.89
2019-03-10T22:22:59.924Z,79.86
2019-03-10T22:25:30.905Z,78.41
2019-03-10T22:28:01.893Z,78.26
2019-03-10T22:30:32.965Z,76.92
2019-03-10T22:33:03.823Z,76.04
2019-03-10T22:35:34.864Z,74.62
2019-03-10T22:38:06.019Z,73.13
2019-03-10T22:40:36.980Z,73.04
2019-03-10T22:43:08.093Z,70.97
2019-03-10T22:45:39.039Z,71.61
2019-03-10T22:48:10.277Z,70.86
2019-03-10T22:50:41.221Z,71.76
2019-03-10T22:53:12.168Z,71.86
2019-03-10T22:55:43.132Z,72.97
2019-03-10T22:58:14.156Z,73.96
2019-03-10T23:00:46.808Z,73.84
2019-03-10T23:03:17.883Z,74.43
2019-03-10T23:05:48.934Z,74.35
2019-03-10T23:08:19.814Z,73.93
2019-03-10T23:10:50.772Z,74.50
2019-03-10T23:13:21.700Z,74.83
2019-03-10T23:15:52.762Z,74.69
2019-03-10T23:18:23.738Z,74.52
2019-03-10T23:20:54.884Z,75.10
2019-03-10T23:23:26.971Z,75.70
2019-03-10T23:25:57.946Z,75.90
2019-03-10T23:28:28.947Z,76.42
2019-03-10T23:31:02.999Z,76.62
2019-03-10T23:33:34.037Z,76.66
2019-03-10T23:36:05.059Z,77.16
2019-03-10T23:38:36.011Z,77.32
2019-03-10T23:41:07.065Z,77.53
2019-03-10T23:43:37.996Z,77.59
2019-03-10T23:46:08.926Z,78.20
2019-03-10T23:48:39.974Z,79.39
2019-03-10T23:51:11.206Z,80.71
2019-03-10T23:53:42.260Z,81.39
2019-03-10T23:56:13.220Z,82.10
2019-03-10T23:58:44.819Z,82.43
